createdAt,value
2022-08-25T20:23:01.550Z,97261.58
2022-08-25T20:25:36.000Z,97255.33
2022-08-25T20:27:59.119Z,97256.31
2022-08-25T20:30:28.867Z,97258.22
2022-08-25T20:32:57.201Z,97262.89
2022-08-25T20:35:27.105Z,97254.51
2022-08-25T20:37:56.129Z,97261.31
2022-08-25T20:40:25.769Z,97261.30
2022-08-25T20:42:55.171Z,97253.89
2022-08-25T20:45:22.823Z,97259.52
2022-08-25T20:47:50.163Z,97262.45
2022-08-25T20:50:18.488Z,97261.27
2022-08-25T20:52:46.147Z,97254.63
2022-08-25T20:55:18.908Z,97247.80
2022-08-25T20:57:46.895Z,97254.23
2022-08-25T21:00:15.733Z,97245.24
2022-08-25T21:02:45.552Z,97248.17
2022-08-25T21:05:13.063Z,97251.66
2022-08-25T21:07:40.959Z,97247.31
2022-08-25T21:10:14.072Z,97244.56
2022-08-25T21:12:40.175Z,97247.87
2022-08-25T21:15:10.878Z,97242.03
2022-08-25T21:17:38.401Z,97241.63
2022-08-25T21:20:07.491Z,97244.74
2022-08-25T21:22:35.354Z,97251.53
2022-08-25T21:25:03.919Z,97244.13
2022-08-25T21:27:31.192Z,97235.34
2022-08-25T21:29:58.342Z,97237.27
2022-08-25T21:32:25.695Z,97238.03
2022-08-25T21:34:54.945Z,97246.00
2022-08-25T21:37:24.424Z,97238.00
2022-08-25T21:39:52.474Z,97240.11
2022-08-25T21:42:21.969Z,97246.31
2022-08-25T21:44:50.119Z,97241.63
2022-08-25T21:47:20.992Z,97242.77
2022-08-25T21:49:48.369Z,97245.48
2022-08-25T21:52:15.883Z,97240.78
2022-08-25T21:54:45.778Z,97246.40
2022-08-25T21:57:13.147Z,97247.77
2022-08-25T21:59:40.831Z,97246.60
2022-08-25T22:02:10.168Z,97248.91
2022-08-25T22:04:39.009Z,97245.77
2022-08-25T22:07:07.777Z,97248.11
2022-08-25T22:09:35.775Z,97252.77
2022-08-25T22:12:04.102Z,97244.58
2022-08-25T22:14:31.819Z,97247.28
2022-08-25T22:17:03.882Z,97243.55
2022-08-25T22:19:31.305Z,97240.61
2022-08-25T22:22:00.793Z,97242.14
2022-08-25T22:24:31.005Z,97240.75
2022-08-25T22:26:58.573Z,97237.23
2022-08-25T22:29:26.751Z,97244.42
2022-08-25T22:31:58.677Z,97243.61
2022-08-25T22:34:31.900Z,97244.17
2022-08-25T22:36:53.321Z,97240.05
2022-08-25T22:39:23.191Z,97236.95
2022-08-25T22:41:50.440Z,97236.14
2022-08-25T22:44:17.510Z,97237.09
2022-08-25T22:46:45.684Z,97232.97
2022-08-25T22:49:12.913Z,97229.64
2022-08-25T22:51:40.120Z,97226.50
2022-08-25T22:54:07.287Z,97235.99
2022-08-25T22:56:38.329Z,97221.58
2022-08-25T22:59:08.348Z,97221.55
2022-08-25T23:01:36.253Z,97224.47
2022-08-25T23:04:05.506Z,97221.48
2022-08-25T23:06:33.879Z,97216.02
2022-08-25T23:09:02.625Z,97210.55
2022-08-25T23:11:30.110Z,97206.85
2022-08-25T23:14:04.182Z,97211.29
2022-08-25T23:16:31.570Z,97202.94
2022-08-25T23:18:59.601Z,97200.61
2022-08-25T23:21:46.297Z,97205.05
2022-08-25T23:24:29.459Z,97198.98
2022-08-25T23:26:45.225Z,97205.00
2022-08-25T23:29:18.362Z,97201.67
2022-08-25T23:31:42.900Z,97203.78
2022-08-25T23:34:10.407Z,97212.90
2022-08-25T23:36:38.776Z,97215.20
2022-08-25T23:39:06.318Z,97206.65
2022-08-25T23:41:36.000Z,97202.73
2022-08-25T23:44:04.992Z,97207.94
2022-08-25T23:46:34.680Z,97213.34
2022-08-25T23:49:03.973Z,97211.13
2022-08-25T23:51:34.031Z,97213.45
2022-08-25T23:54:05.384Z,97214.77
2022-08-25T23:56:33.860Z,97210.86
2022-08-25T23:59:03.029Z,97205.96
